Time;durP1;ratioP1;P1;durP2;ratioP2;P2;SDS_P1;SDS_P2;PMS_P1;PMS_P2;Temp;Humidity;BMP_temperature;BMP_pressure;BME280_temperature;BME280_humidity;BME280_pressure;Samples;Min_cycle;Max_cycle;Signal;HPM_P1;HPM_P2
2023/10/23 00:00:17;;;;;;;7.97;5.10;;;;;;;9.05;83.05;97768.09;5107680;28;20219;-78
2023/10/23 00:02:45;;;;;;;6.22;4.82;;;;;;;9.23;82.64;97760.28;5105190;28;20232;-78
2023/10/23 00:05:12;;;;;;;6.60;5.18;;;;;;;9.12;82.54;97758.13;5106151;28;20203;-78
2023/10/23 00:07:38;;;;;;;6.95;5.30;;;;;;;8.98;83.26;97756.41;5108594;28;20286;-78
2023/10/23 00:10:06;;;;;;;7.00;5.03;;;;;;;8.90;83.73;97772.75;5107695;28;20284;-78
2023/10/23 00:12:32;;;;;;;6.63;5.63;;;;;;;8.84;84.08;97765.44;5097601;28;20245;-78
2023/10/23 00:14:59;;;;;;;6.20;4.93;;;;;;;8.79;84.31;97766.03;5108213;28;20204;-78
2023/10/23 00:17:25;;;;;;;6.63;5.88;;;;;;;8.58;85.30;97764.25;5107773;28;20204;-78
2023/10/23 00:19:53;;;;;;;8.98;6.10;;;;;;;8.23;85.68;97722.03;5107682;28;20197;-78
2023/10/23 00:22:20;;;;;;;8.02;6.32;;;;;;;8.52;85.41;97767.72;5108842;28;20234;-77
2023/10/23 00:24:46;;;;;;;6.47;5.63;;;;;;;8.33;86.72;97763.00;5107626;28;20200;-79
2023/10/23 00:27:13;;;;;;;7.82;5.80;;;;;;;8.26;86.88;97773.72;5108318;28;20195;-78
2023/10/23 00:29:39;;;;;;;6.88;5.35;;;;;;;8.08;88.07;97781.44;5107552;28;20199;-78
2023/10/23 00:32:06;;;;;;;7.68;5.55;;;;;;;7.94;89.35;97785.84;5108632;28;20223;-78
2023/10/23 00:34:33;;;;;;;7.80;5.57;;;;;;;8.04;88.99;97789.06;5108672;28;20218;-77
2023/10/23 00:37:00;;;;;;;6.38;5.45;;;;;;;8.11;88.02;97786.44;5107969;28;20195;-78
2023/10/23 00:39:27;;;;;;;7.50;6.60;;;;;;;8.08;88.48;97805.69;5107536;28;20220;-78
2023/10/23 00:41:53;;;;;;;7.10;6.30;;;;;;;8.12;88.25;97781.88;5108656;28;20272;-78
2023/10/23 00:44:20;;;;;;;7.65;6.15;;;;;;;7.97;88.68;97772.00;5108209;28;20737;-78
2023/10/23 00:46:46;;;;;;;7.28;5.13;;;;;;;8.19;88.13;97788.16;5107649;28;20536;-78
2023/10/23 00:49:13;;;;;;;5.50;5.00;;;;;;;8.18;87.99;97792.69;5107103;28;20208;-78
2023/10/23 00:51:39;;;;;;;6.10;5.50;;;;;;;8.15;88.10;97792.25;5106955;28;20232;-78
2023/10/23 00:54:08;;;;;;;6.60;5.40;;;;;;;8.07;88.34;97793.25;5107969;28;20212;-78
2023/10/23 00:56:35;;;;;;;6.80;5.47;;;;;;;8.08;88.55;97790.34;5107428;28;20314;-78
2023/10/23 00:59:02;;;;;;;7.57;5.88;;;;;;;8.09;88.34;97781.25;5107607;28;20679;-77
2023/10/23 01:01:30;;;;;;;11.55;6.53;;;;;;;8.14;87.94;97798.66;5108479;28;20208;-78
2023/10/23 01:03:56;;;;;;;6.22;5.63;;;;;;;8.13;88.09;97772.75;5107453;28;20693;-78
2023/10/23 01:06:23;;;;;;;9.93;6.47;;;;;;;8.11;88.06;97780.22;5107320;28;20204;-78
2023/10/23 01:08:49;;;;;;;8.20;5.80;;;;;;;8.01;88.27;97778.66;5106020;28;20203;-78
2023/10/23 01:11:17;;;;;;;9.50;6.97;;;;;;;8.07;88.27;97777.06;5107944;28;20200;-77
2023/10/23 01:13:43;;;;;;;6.60;6.00;;;;;;;8.08;88.02;97776.03;5105108;28;20217;-78
2023/10/23 01:16:10;;;;;;;8.70;6.03;;;;;;;8.18;87.70;97763.06;5103290;28;20969;-78
2023/10/23 01:18:36;;;;;;;9.18;6.43;;;;;;;8.20;87.62;97768.25;5105706;28;20207;-77
2023/10/23 01:21:03;;;;;;;6.78;6.07;;;;;;;8.27;86.99;97769.16;5105709;28;20198;-78
2023/10/23 01:23:34;;;;;;;8.57;6.60;;;;;;;8.23;87.22;97767.88;5107812;28;20227;-78
2023/10/23 01:26:01;;;;;;;6.70;6.00;;;;;;;8.32;86.90;97767.56;5106631;28;20236;-78
2023/10/23 01:28:28;;;;;;;7.93;7.00;;;;;;;8.22;87.29;97766.19;5105433;28;20212;-78
2023/10/23 01:30:54;;;;;;;7.65;6.80;;;;;;;8.01;88.32;97765.19;5104140;28;20282;-77
2023/10/23 01:33:21;;;;;;;9.35;7.45;;;;;;;7.94;88.87;97758.91;5107292;28;20772;-78
2023/10/23 01:35:47;;;;;;;9.18;8.25;;;;;;;7.83;89.37;97769.34;5107275;28;20615;-78
2023/10/23 01:38:14;;;;;;;8.00;7.20;;;;;;;7.80;89.27;97773.25;5107555;28;20215;-77
2023/10/23 01:40:40;;;;;;;8.45;6.97;;;;;;;7.71;89.56;97777.09;5105850;28;20647;-78
2023/10/23 01:43:08;;;;;;;8.23;7.32;;;;;;;7.77;89.65;97776.34;5105645;28;20224;-77
2023/10/23 01:45:35;;;;;;;8.13;7.30;;;;;;;7.70;89.64;97772.75;5106603;28;20600;-78
2023/10/23 01:48:01;;;;;;;8.88;7.90;;;;;;;7.65;89.93;97770.63;5108743;28;20204;-78
2023/10/23 01:50:28;;;;;;;9.52;8.48;;;;;;;7.47;90.66;97772.91;5106943;28;20208;-78
2023/10/23 01:52:54;;;;;;;11.52;8.70;;;;;;;7.40;91.38;97777.38;5107574;28;20231;-77
2023/10/23 01:55:21;;;;;;;9.90;8.70;;;;;;;7.45;91.26;97768.72;5106785;28;20200;-78
2023/10/23 01:57:47;;;;;;;8.65;7.82;;;;;;;7.32;92.19;97775.63;5107745;28;20316;-77
2023/10/23 02:00:15;;;;;;;9.00;8.20;;;;;;;7.31;92.27;97773.94;5105226;28;20188;-78
2023/10/23 02:02:42;;;;;;;8.32;7.60;;;;;;;7.32;92.10;97769.41;5105952;28;20572;-77
2023/10/23 02:05:09;;;;;;;10.32;8.20;;;;;;;7.18;92.80;97763.00;5106852;28;20202;-77
2023/10/23 02:07:35;;;;;;;9.15;7.80;;;;;;;7.16;92.94;97770.41;5108257;28;20207;-77
2023/10/23 02:10:01;;;;;;;9.32;7.90;;;;;;;7.19;93.65;97775.44;5122960;28;20562;-77
2023/10/23 02:12:28;;;;;;;10.02;8.23;;;;;;;7.10;93.59;97768.50;5105771;28;20672;-77
2023/10/23 02:14:55;;;;;;;10.10;9.07;;;;;;;7.10;93.05;97771.19;5106688;28;20298;-77
2023/10/23 02:17:23;;;;;;;9.30;8.35;;;;;;;7.07;93.35;97768.88;5104062;28;20208;-77
2023/10/23 02:19:49;;;;;;;9.70;8.35;;;;;;;7.17;92.61;97760.50;5106232;28;20199;-77
2023/10/23 02:22:17;;;;;;;10.60;9.35;;;;;;;7.08;93.35;97762.47;5104461;28;20226;-77
2023/10/23 02:24:44;;;;;;;9.75;8.77;;;;;;;7.02;93.57;97766.75;5107540;28;20201;-77
2023/10/23 02:27:10;;;;;;;10.13;8.98;;;;;;;7.10;93.27;97763.13;5108422;28;20247;-77
2023/10/23 02:29:39;;;;;;;12.73;9.15;;;;;;;7.07;93.40;97763.50;5108776;28;20207;-77
2023/10/23 02:32:06;;;;;;;10.25;9.23;;;;;;;6.99;93.54;97760.91;5109503;28;20632;-77
2023/10/23 02:34:34;;;;;;;9.57;8.35;;;;;;;7.07;93.79;97763.50;5106622;28;20195;-77
2023/10/23 02:37:01;;;;;;;13.95;9.20;;;;;;;7.12;92.60;97758.38;5109744;28;20558;-77
2023/10/23 02:39:27;;;;;;;13.38;9.30;;;;;;;7.11;92.70;97762.09;5109370;28;20207;-77
2023/10/23 02:41:54;;;;;;;9.32;8.43;;;;;;;7.13;92.62;97764.59;5108748;28;20219;-77
2023/10/23 02:44:20;;;;;;;12.10;8.88;;;;;;;6.99;92.83;97763.59;5106664;28;20217;-77
2023/10/23 02:46:46;;;;;;;13.63;9.75;;;;;;;6.96;92.96;97770.16;5106698;28;20730;-77
2023/10/23 02:49:13;;;;;;;13.65;9.35;;;;;;;6.96;93.18;97770.16;5107310;28;20195;-77
2023/10/23 02:51:41;;;;;;;10.00;8.98;;;;;;;7.01;93.00;97775.00;5108509;28;20202;-77
2023/10/23 02:54:07;;;;;;;10.52;9.48;;;;;;;6.79;93.17;97757.09;5105281;28;20195;-77
2023/10/23 02:56:34;;;;;;;10.65;9.55;;;;;;;6.95;93.45;97768.50;5107601;28;20201;-77
2023/10/23 02:59:00;;;;;;;12.23;10.93;;;;;;;6.89;93.63;97779.16;5109077;28;20974;-78
2023/10/23 03:01:27;;;;;;;16.80;10.05;;;;;;;6.83;94.29;97782.59;5110210;28;20550;-77
2023/10/23 03:03:53;;;;;;;11.50;10.38;;;;;;;6.78;94.76;97782.34;5108383;28;20687;-78
2023/10/23 03:06:20;;;;;;;11.20;10.00;;;;;;;6.79;94.72;97778.63;5106166;28;20202;-76
2023/10/23 03:08:48;;;;;;;10.90;9.85;;;;;;;6.80;94.74;97774.91;5099514;28;20203;-77
2023/10/23 03:11:14;;;;;;;11.00;9.20;;;;;;;6.78;94.67;97776.94;5110357;28;20237;-77
2023/10/23 03:13:41;;;;;;;14.65;9.85;;;;;;;6.74;94.18;97776.47;5107282;28;20223;-78
2023/10/23 03:16:08;;;;;;;10.80;9.70;;;;;;;6.81;94.31;97776.59;5099484;28;20222;-77
2023/10/23 03:18:34;;;;;;;10.32;9.32;;;;;;;6.82;93.82;97771.03;5099945;28;20211;-77
2023/10/23 03:21:01;;;;;;;8.75;7.80;;;;;;;6.76;93.60;97763.69;5100760;28;20196;-78
2023/10/23 03:23:28;;;;;;;9.75;8.80;;;;;;;6.90;93.77;97767.38;5107345;28;20279;-77
2023/10/23 03:25:56;;;;;;;10.50;9.50;;;;;;;6.79;93.99;97773.25;5107209;28;20700;-77
2023/10/23 03:28:22;;;;;;;11.77;10.35;;;;;;;6.77;94.09;97768.06;5108035;28;20249;-77
2023/10/23 03:30:49;;;;;;;10.90;9.40;;;;;;;6.74;94.49;97776.47;5087306;28;20206;-77
2023/10/23 03:33:15;;;;;;;10.80;9.25;;;;;;;6.71;94.68;97783.06;5106593;28;20223;-78
2023/10/23 03:35:42;;;;;;;9.80;8.82;;;;;;;6.79;94.60;97779.47;5103981;28;20203;-77
2023/10/23 03:38:09;;;;;;;11.40;9.77;;;;;;;6.74;94.76;97781.88;5103153;28;20745;-77
2023/10/23 03:40:36;;;;;;;10.63;9.52;;;;;;;6.78;94.85;97772.41;5097965;28;20240;-77
2023/10/23 03:43:04;;;;;;;14.57;9.90;;;;;;;6.78;94.81;97771.56;5107283;28;20226;-77
2023/10/23 03:45:35;;;;;;;11.43;10.23;;;;;;;6.72;95.17;97773.16;5106460;28;20962;-78
2023/10/23 03:48:02;;;;;;;10.55;9.55;;;;;;;6.69;95.27;97768.97;5105528;28;20191;-76
2023/10/23 03:50:28;;;;;;;11.27;9.50;;;;;;;6.68;95.12;97771.84;5105236;28;20239;-77
2023/10/23 03:52:54;;;;;;;8.57;7.88;;;;;;;6.77;94.75;97770.75;5106589;28;20214;-77
2023/10/23 03:55:21;;;;;;;9.90;8.43;;;;;;;6.69;94.66;97768.13;5104611;28;20207;-77
2023/10/23 03:57:47;;;;;;;9.85;8.85;;;;;;;6.63;94.46;97767.00;5106697;28;20207;-77
2023/10/23 04:00:16;;;;;;;9.50;8.45;;;;;;;6.59;94.95;97763.00;5102098;28;20203;-77
2023/10/23 04:02:43;;;;;;;10.07;8.50;;;;;;;6.45;95.21;97763.00;5101713;28;20222;-77
2023/10/23 04:05:09;;;;;;;8.73;7.75;;;;;;;6.53;95.15;97769.13;5106261;28;20207;-79
2023/10/23 04:07:35;;;;;;;10.98;10.00;;;;;;;6.38;95.75;97765.59;5104953;28;20207;-77
2023/10/23 04:10:02;;;;;;;9.65;8.65;;;;;;;6.47;95.58;97764.50;5096608;28;20221;-77
2023/10/23 04:12:28;;;;;;;11.13;9.07;;;;;;;6.51;94.92;97760.41;5101797;28;20218;-77
2023/10/23 04:14:55;;;;;;;10.85;9.73;;;;;;;6.53;94.57;97758.38;5105864;28;20206;-79
2023/10/23 04:17:23;;;;;;;11.15;8.75;;;;;;;6.48;94.43;97752.72;5097680;28;20202;-76
2023/10/23 04:19:49;;;;;;;10.50;9.50;;;;;;;6.44;94.03;97761.34;5105616;28;20214;-74
2023/10/23 04:22:16;;;;;;;10.13;9.23;;;;;;;6.53;94.06;97753.00;5098731;28;20217;-72
2023/10/23 04:24:42;;;;;;;9.93;8.93;;;;;;;6.50;93.74;97756.03;5104819;28;20285;-72
2023/10/23 04:27:08;;;;;;;10.35;9.35;;;;;;;6.42;94.07;97742.69;5101853;28;20206;-73
2023/10/23 04:29:35;;;;;;;9.20;8.48;;;;;;;6.40;94.23;97752.81;5108806;28;20199;-74
2023/10/23 04:32:02;;;;;;;9.63;7.60;;;;;;;6.45;93.36;97742.34;5107742;28;20225;-73
2023/10/23 04:34:29;;;;;;;7.57;6.72;;;;;;;6.32;94.11;97755.56;5104043;28;20195;-78
2023/10/23 04:36:56;;;;;;;9.30;7.00;;;;;;;6.45;93.23;97750.41;5099086;28;20218;-78
2023/10/23 04:39:22;;;;;;;8.52;6.68;;;;;;;6.33;93.29;97751.84;5106730;28;20220;-78
2023/10/23 04:41:49;;;;;;;8.10;7.32;;;;;;;6.17;93.71;97749.34;5106655;28;20198;-79
2023/10/23 04:44:15;;;;;;;8.75;7.72;;;;;;;6.17;93.97;97742.13;5101361;28;20219;-79
2023/10/23 04:46:42;;;;;;;9.77;7.18;;;;;;;6.16;94.08;97742.28;5105629;28;20270;-78
2023/10/23 04:49:08;;;;;;;8.27;7.45;;;;;;;6.13;93.84;97737.28;5104797;28;20569;-78
2023/10/23 04:51:36;;;;;;;8.85;7.30;;;;;;;6.05;94.43;97732.81;5105616;28;20195;-79
2023/10/23 04:54:03;;;;;;;7.25;6.50;;;;;;;6.14;94.33;97733.56;5103527;28;20191;-79
2023/10/23 04:56:30;;;;;;;8.48;6.78;;;;;;;5.97;94.66;97733.69;5122332;27;20287;-78
2023/10/23 04:58:56;;;;;;;6.90;6.20;;;;;;;5.95;94.91;97733.03;5106104;28;20289;-78
2023/10/23 05:01:24;;;;;;;7.03;6.32;;;;;;;5.91;95.29;97737.09;5106075;28;20202;-76
2023/10/23 05:03:50;;;;;;;8.20;7.50;;;;;;;5.86;95.21;97734.09;5104917;28;20246;-78
2023/10/23 05:06:17;;;;;;;9.07;8.00;;;;;;;5.90;95.51;97734.59;5098416;28;20203;-76
2023/10/23 05:08:45;;;;;;;9.07;7.78;;;;;;;5.90;94.96;97730.06;5102453;28;20203;-78
2023/10/23 05:11:12;;;;;;;10.10;9.20;;;;;;;5.74;95.52;97735.53;5099300;28;20665;-78
2023/10/23 05:13:38;;;;;;;10.57;9.52;;;;;;;5.62;96.75;97728.91;5099036;28;20233;-78
2023/10/23 05:16:06;;;;;;;12.32;10.63;;;;;;;5.67;96.74;97723.84;5099681;28;20092;-78
2023/10/23 05:18:33;;;;;;;14.50;10.40;;;;;;;5.78;96.76;97720.75;5104444;28;20190;-80
2023/10/23 05:20:59;;;;;;;13.10;11.70;;;;;;;5.66;96.99;97708.75;5104711;28;20199;-75
2023/10/23 05:23:26;;;;;;;11.43;10.27;;;;;;;5.84;96.45;97709.28;5099838;28;20233;-77
2023/10/23 05:25:54;;;;;;;15.07;10.95;;;;;;;5.86;96.24;97715.28;5104820;28;20203;-79
2023/10/23 05:28:20;;;;;;;13.02;11.68;;;;;;;5.79;96.34;97716.22;5106393;28;20198;-79
2023/10/23 05:30:46;;;;;;;12.43;11.07;;;;;;;5.81;96.32;97723.06;5107032;28;20207;-79
2023/10/23 05:33:13;;;;;;;12.63;11.00;;;;;;;5.83;96.24;97723.72;5107107;28;20223;-80
2023/10/23 05:35:39;;;;;;;13.30;12.00;;;;;;;5.69;96.67;97729.88;5088402;28;20256;-80
2023/10/23 05:38:06;;;;;;;15.50;12.45;;;;;;;5.70;96.81;97726.16;5106727;28;20210;-79
2023/10/23 05:40:32;;;;;;;13.23;11.88;;;;;;;5.63;96.89;97734.09;5098485;28;20199;-79
2023/10/23 05:43:00;;;;;;;13.05;11.65;;;;;;;5.68;96.92;97728.19;5107488;28;20237;-79
2023/10/23 05:45:27;;;;;;;15.40;12.57;;;;;;;5.64;96.96;97727.72;5107262;28;20213;-79
2023/10/23 05:47:53;;;;;;;15.20;13.70;;;;;;;5.52;97.44;97731.84;5108170;28;20546;-79
2023/10/23 05:50:20;;;;;;;15.70;13.98;;;;;;;5.71;96.82;97730.53;5108426;28;20527;-79
2023/10/23 05:52:46;;;;;;;14.57;13.02;;;;;;;5.64;96.84;97734.94;5106294;28;20227;-79
2023/10/23 05:55:12;;;;;;;18.13;14.38;;;;;;;5.67;96.63;97739.94;5107311;28;20210;-79
2023/10/23 05:57:39;;;;;;;16.75;13.98;;;;;;;5.57;97.09;97744.72;5106724;28;20210;-79
2023/10/23 06:00:09;;;;;;;14.43;11.73;;;;;;;5.63;97.19;97750.22;5108197;28;20210;-79
2023/10/23 06:02:35;;;;;;;13.63;12.32;;;;;;;5.64;96.98;97761.78;5108296;28;20548;-79
2023/10/23 06:05:01;;;;;;;17.20;13.30;;;;;;;5.74;96.64;97765.91;5112414;28;20988;-81
2023/10/23 06:07:29;;;;;;;13.18;11.73;;;;;;;5.71;96.50;97770.81;5112102;28;20210;-79
2023/10/23 06:09:56;;;;;;;16.60;12.88;;;;;;;5.53;97.18;97770.22;5109118;28;20278;-76
2023/10/23 06:12:23;;;;;;;15.80;14.05;;;;;;;5.50;97.93;97766.06;5112071;28;20303;-79
2023/10/23 06:14:49;;;;;;;14.57;13.07;;;;;;;5.44;98.18;97764.09;5109319;28;20894;-79
2023/10/23 06:17:17;;;;;;;15.55;13.95;;;;;;;5.41;98.32;97764.44;5110803;28;20211;-79
2023/10/23 06:19:43;;;;;;;14.63;13.10;;;;;;;5.52;98.44;97763.22;5110589;28;20214;-79
2023/10/23 06:22:10;;;;;;;16.80;13.43;;;;;;;5.61;97.79;97762.13;5110376;28;20226;-79
2023/10/23 06:24:36;;;;;;;15.00;12.68;;;;;;;5.87;96.71;97761.78;5109833;28;20721;-79
2023/10/23 06:27:03;;;;;;;15.88;12.73;;;;;;;5.81;96.38;97760.66;5109258;28;20210;-79
2023/10/23 06:29:30;;;;;;;16.05;13.65;;;;;;;5.84;96.86;97749.56;5110395;28;20195;-79
2023/10/23 06:31:57;;;;;;;13.40;11.85;;;;;;;5.90;96.35;97740.81;5105588;28;20235;-80
2023/10/23 06:34:24;;;;;;;16.10;11.52;;;;;;;6.05;95.91;97739.00;5109977;28;20214;-80
2023/10/23 06:36:51;;;;;;;12.80;10.93;;;;;;;6.05;96.05;97746.25;5099460;28;20206;-79
2023/10/23 06:39:17;;;;;;;15.02;10.85;;;;;;;6.07;96.30;97747.72;5109296;28;20620;-79
2023/10/23 06:41:44;;;;;;;11.75;10.65;;;;;;;6.34;95.47;97750.84;5109605;28;20226;-79
2023/10/23 06:44:10;;;;;;;14.15;10.75;;;;;;;6.38;95.01;97744.09;5110137;28;20242;-79
2023/10/23 06:46:37;;;;;;;11.77;8.70;;;;;;;6.24;94.86;97747.56;5109369;28;20214;-79
2023/10/23 06:49:03;;;;;;;13.55;9.40;;;;;;;6.38;94.84;97752.16;5111464;28;20205;-79
2023/10/23 06:51:31;;;;;;;9.30;8.05;;;;;;;6.54;94.86;97743.91;5111008;28;20904;-79
2023/10/23 06:53:57;;;;;;;8.70;7.70;;;;;;;7.13;93.26;97748.47;5108809;28;20217;-79
2023/10/23 06:56:24;;;;;;;6.45;5.82;;;;;;;7.83;89.60;97755.88;5110827;28;20203;-79
2023/10/23 06:58:51;;;;;;;6.75;6.00;;;;;;;7.70;88.06;97740.41;5111314;28;20202;-79
2023/10/23 07:01:17;;;;;;;6.78;5.15;;;;;;;7.66;87.26;97753.44;5105725;28;20211;-79
2023/10/23 07:03:44;;;;;;;5.85;5.40;;;;;;;7.24;88.49;97748.78;5111250;28;20231;-79
2023/10/23 07:06:10;;;;;;;10.68;6.15;;;;;;;6.77;90.00;97746.53;5108922;28;20205;-79
2023/10/23 07:08:39;;;;;;;6.97;6.38;;;;;;;6.68;91.07;97739.56;5110286;28;20209;-79
2023/10/23 07:11:12;;;;;;;7.93;6.63;;;;;;;6.61;91.27;97730.56;5109743;28;20213;-80
2023/10/23 07:13:39;;;;;;;9.55;6.85;;;;;;;6.56;91.85;97731.13;5109063;28;20213;-79
2023/10/23 07:16:06;;;;;;;7.65;6.30;;;;;;;6.84;91.13;97723.22;5108029;28;20198;-79
2023/10/23 07:18:33;;;;;;;7.05;6.05;;;;;;;6.87;91.01;97719.34;5108003;28;20670;-79
2023/10/23 07:21:00;;;;;;;7.65;5.72;;;;;;;6.90;90.14;97716.28;5109142;28;20213;-79
2023/10/23 07:23:28;;;;;;;7.10;6.05;;;;;;;6.86;90.09;97723.03;5110454;28;20230;-79
2023/10/23 07:26:10;;;;;;;8.10;5.60;;;;;;;6.64;91.19;97724.81;5107558;28;20767;-79
2023/10/23 07:28:38;;;;;;;8.73;6.40;;;;;;;6.76;91.49;97731.41;5109326;28;20553;-79
2023/10/23 07:31:04;;;;;;;7.28;6.53;;;;;;;6.68;91.70;97726.97;5109281;28;20222;-79
2023/10/23 07:33:31;;;;;;;7.13;6.43;;;;;;;6.83;91.05;97724.25;5109211;28;20227;-79
2023/10/23 07:36:02;;;;;;;6.40;5.90;;;;;;;6.86;90.52;97721.19;5107566;28;20207;-79
2023/10/23 07:38:29;;;;;;;6.72;5.75;;;;;;;6.97;90.47;97701.91;5108955;28;20715;-79
2023/10/23 07:40:55;;;;;;;9.00;6.82;;;;;;;6.99;90.39;97704.41;5108478;28;20213;-79
2023/10/23 07:43:23;;;;;;;8.73;6.45;;;;;;;7.31;89.71;97703.13;5110430;28;21167;-79
2023/10/23 07:45:49;;;;;;;8.52;6.00;;;;;;;7.58;88.56;97698.84;5108019;28;20199;-79
2023/10/23 07:48:16;;;;;;;7.03;6.05;;;;;;;7.46;88.72;97695.03;5108862;28;20213;-79
2023/10/23 07:50:43;;;;;;;7.38;6.75;;;;;;;7.45;88.90;97699.56;5109546;28;20260;-79
2023/10/23 07:53:09;;;;;;;7.50;5.93;;;;;;;7.50;89.28;97701.66;5109028;28;20227;-79
2023/10/23 07:55:36;;;;;;;6.45;5.85;;;;;;;7.65;88.64;97689.00;5105465;28;20199;-79
2023/10/23 07:58:03;;;;;;;6.38;5.80;;;;;;;7.80;87.98;97700.50;5107524;28;20272;-79
2023/10/23 08:00:31;;;;;;;7.00;6.10;;;;;;;8.10;86.29;97703.91;5109016;28;20215;-79
2023/10/23 08:02:57;;;;;;;7.13;5.35;;;;;;;8.31;85.05;97706.56;5107148;28;20241;-79
2023/10/23 08:05:24;;;;;;;7.85;5.40;;;;;;;8.17;85.21;97701.25;5107476;28;20229;-79
2023/10/23 08:07:50;;;;;;;9.15;5.05;;;;;;;8.31;84.96;97693.06;5105956;28;20240;-79
2023/10/23 08:10:18;;;;;;;6.18;4.90;;;;;;;8.29;84.75;97694.31;5107420;28;20208;-79
2023/10/23 08:12:46;;;;;;;8.15;5.00;;;;;;;8.33;85.04;97690.22;5108004;28;20230;-79
2023/10/23 08:15:12;;;;;;;5.53;5.03;;;;;;;8.51;84.11;97679.75;5105337;28;20205;-79
2023/10/23 08:17:40;;;;;;;6.32;4.43;;;;;;;8.62;83.96;97679.22;5106533;28;20205;-79
2023/10/23 08:20:08;;;;;;;5.38;4.45;;;;;;;8.66;83.77;97683.19;5109100;28;20214;-79
2023/10/23 08:22:35;;;;;;;8.50;4.60;;;;;;;8.66;83.20;97672.38;5108035;28;20417;-79
2023/10/23 08:25:01;;;;;;;4.50;3.72;;;;;;;8.71;81.90;97680.72;5106528;28;20225;-79
2023/10/23 08:27:28;;;;;;;5.00;3.47;;;;;;;8.72;82.79;97676.16;5107399;28;20548;-79
2023/10/23 08:29:54;;;;;;;6.70;3.92;;;;;;;8.71;82.46;97667.22;5107440;28;20216;-79
2023/10/23 08:32:20;;;;;;;6.03;3.60;;;;;;;8.58;82.56;97669.84;5109435;28;20222;-80
2023/10/23 08:34:52;;;;;;;3.53;3.13;;;;;;;8.77;81.57;97683.66;5107766;28;20932;-81
2023/10/23 08:37:18;;;;;;;5.65;3.70;;;;;;;8.58;81.60;97677.94;5106456;28;20684;-79
2023/10/23 08:39:45;;;;;;;4.00;3.42;;;;;;;8.64;82.45;97679.84;5108373;28;20216;-79
2023/10/23 08:42:11;;;;;;;6.18;3.60;;;;;;;8.77;82.15;97681.78;5101836;28;20214;-79
2023/10/23 08:44:38;;;;;;;4.20;3.80;;;;;;;8.98;80.76;97684.38;5106628;28;20240;-79
2023/10/23 08:47:04;;;;;;;4.10;3.28;;;;;;;9.08;80.42;97684.00;5108534;28;20206;-80
2023/10/23 08:49:31;;;;;;;5.40;3.40;;;;;;;9.36;79.69;97689.31;5108444;28;20207;-79
2023/10/23 08:52:00;;;;;;;5.80;3.15;;;;;;;9.51;79.56;97689.13;5106769;28;20225;-79
2023/10/23 08:54:28;;;;;;;6.00;3.22;;;;;;;9.60;79.27;97680.63;5107540;28;20207;-80
2023/10/23 08:57:02;;;;;;;7.80;3.25;;;;;;;9.43;79.87;97685.56;5108975;28;20255;-79
2023/10/23 08:59:28;;;;;;;4.95;3.22;;;;;;;9.43;80.18;97673.91;5108744;28;20217;-79
2023/10/23 09:01:55;;;;;;;6.00;3.75;;;;;;;9.66;79.42;97677.09;5106865;28;20221;-80
2023/10/23 09:04:22;;;;;;;5.15;3.30;;;;;;;9.59;79.37;97673.56;5107686;28;20236;-80
2023/10/23 09:06:48;;;;;;;5.90;3.60;;;;;;;9.67;79.24;97681.47;5107612;28;20244;-80
2023/10/23 09:09:16;;;;;;;4.38;3.50;;;;;;;9.89;78.09;97681.28;5107260;28;20310;-80
2023/10/23 09:11:44;;;;;;;5.22;3.50;;;;;;;10.04;77.57;97681.94;5107912;28;20562;-80
2023/10/23 09:14:11;;;;;;;3.75;2.97;;;;;;;10.03;76.25;97675.69;5109029;28;20214;-80
2023/10/23 09:16:38;;;;;;;4.20;2.92;;;;;;;9.96;75.76;97669.44;5108277;28;20203;-80
2023/10/23 09:19:04;;;;;;;3.40;3.10;;;;;;;10.06;75.62;97659.06;5107906;28;20213;-80
2023/10/23 09:21:32;;;;;;;4.03;3.67;;;;;;;10.21;75.66;97652.63;5106541;28;20600;-80
2023/10/23 09:24:00;;;;;;;4.60;3.22;;;;;;;10.38;74.49;97646.59;5106743;28;20214;-80
2023/10/23 09:26:28;;;;;;;4.78;3.17;;;;;;;10.49;74.13;97636.97;5108602;28;20223;-80
2023/10/23 09:28:54;;;;;;;4.13;2.80;;;;;;;10.50;74.32;97644.03;5108585;28;20684;-80
2023/10/23 09:31:21;;;;;;;3.22;2.90;;;;;;;10.68;73.89;97648.81;5106914;28;20222;-80
2023/10/23 09:33:50;;;;;;;3.13;2.78;;;;;;;10.71;74.04;97643.81;5107039;28;20203;-81
2023/10/23 09:36:17;;;;;;;3.50;2.80;;;;;;;10.76;73.61;97643.97;5107187;28;20202;-80
2023/10/23 09:38:44;;;;;;;3.55;2.80;;;;;;;10.85;74.10;97649.16;5108781;28;20210;-80
2023/10/23 09:41:11;;;;;;;3.45;2.95;;;;;;;10.59;74.84;97640.06;5112941;28;20562;-80
2023/10/23 09:43:45;;;;;;;4.60;3.53;;;;;;;10.76;74.78;97660.22;5112673;28;20206;-80
2023/10/23 09:46:12;;;;;;;6.45;3.33;;;;;;;10.87;74.49;97650.59;5110653;28;20209;-80
2023/10/23 09:48:39;;;;;;;3.63;2.92;;;;;;;10.85;75.13;97660.81;5111491;28;20696;-80
2023/10/23 09:51:06;;;;;;;3.47;2.75;;;;;;;10.97;74.01;97664.53;5109474;28;20199;-80
2023/10/23 09:53:33;;;;;;;3.65;3.30;;;;;;;10.94;74.28;97661.41;5110670;28;20208;-80
2023/10/23 09:56:00;;;;;;;5.50;3.00;;;;;;;10.98;73.86;97668.06;5110181;28;20195;-81
2023/10/23 09:58:31;;;;;;;5.68;3.25;;;;;;;11.02;74.46;97669.31;5105781;28;20206;-80
2023/10/23 10:01:00;;;;;;;3.95;3.05;;;;;;;10.81;74.72;97661.44;5111966;28;20199;-80
2023/10/23 10:03:28;;;;;;;4.03;3.63;;;;;;;10.85;73.89;97668.09;5112265;28;20201;-80
2023/10/23 10:05:58;;;;;;;3.05;2.85;;;;;;;10.78;74.35;97666.25;5111419;28;20727;-80
2023/10/23 10:08:25;;;;;;;5.07;3.25;;;;;;;11.10;73.62;97666.34;5109923;28;20297;-80
2023/10/23 10:10:52;;;;;;;7.65;3.40;;;;;;;11.23;73.56;97658.16;5110800;28;20221;-80
2023/10/23 10:13:20;;;;;;;4.60;2.90;;;;;;;11.23;72.93;97660.88;5110528;28;20207;-80
2023/10/23 10:15:47;;;;;;;4.25;3.03;;;;;;;11.32;72.91;97648.75;5109082;28;20207;-79
2023/10/23 10:18:16;;;;;;;3.30;2.95;;;;;;;11.23;72.87;97643.78;5110893;28;20202;-80
2023/10/23 10:20:44;;;;;;;4.07;3.08;;;;;;;10.90;74.29;97641.22;5109040;28;20223;-80
2023/10/23 10:23:12;;;;;;;5.32;3.20;;;;;;;10.89;73.83;97642.28;5109630;28;20582;-80
2023/10/23 10:25:39;;;;;;;5.85;2.95;;;;;;;11.18;73.24;97635.47;5108271;28;20234;-80
2023/10/23 10:28:07;;;;;;;4.75;2.95;;;;;;;11.45;72.48;97621.56;5111712;28;20203;-80
2023/10/23 10:30:38;;;;;;;3.60;2.90;;;;;;;11.31;72.47;97609.16;5111480;28;20203;-80
2023/10/23 10:33:09;;;;;;;4.90;2.40;;;;;;;11.58;72.31;97625.25;5111405;28;20237;-80
2023/10/23 10:35:37;;;;;;;5.75;3.30;;;;;;;11.60;71.79;97623.16;5110383;28;20203;-80
2023/10/23 10:38:04;;;;;;;7.55;3.30;;;;;;;11.76;71.35;97617.19;5110084;28;20203;-80
2023/10/23 10:40:54;;;;;;;6.38;3.58;;;;;;;11.95;70.87;97610.81;5110146;28;20205;-81
2023/10/23 10:43:21;;;;;;;4.93;3.40;;;;;;;12.10;70.58;97607.75;5111162;28;20211;-80
2023/10/23 10:45:48;;;;;;;4.50;3.45;;;;;;;12.15;70.53;97601.66;5107961;28;20250;-81
2023/10/23 10:48:15;;;;;;;4.25;3.28;;;;;;;12.35;70.31;97596.84;5108824;28;20969;-80
2023/10/23 10:50:43;;;;;;;4.63;2.83;;;;;;;12.39;70.08;97589.94;5109341;28;20195;-80
2023/10/23 10:53:14;;;;;;;4.53;2.90;;;;;;;12.26;70.55;97592.81;5109715;28;20195;-80
2023/10/23 10:55:44;;;;;;;7.65;2.88;;;;;;;12.18;70.88;97584.94;5098493;28;20305;-81
2023/10/23 10:58:11;;;;;;;6.82;3.08;;;;;;;12.08;71.03;97589.00;5108298;28;20218;-80
2023/10/23 11:00:38;;;;;;;4.75;2.75;;;;;;;12.10;71.60;97575.19;5111414;28;20203;-81
2023/10/23 11:03:05;;;;;;;4.28;2.90;;;;;;;12.31;71.24;97574.81;5109508;28;21004;-81
2023/10/23 11:05:32;;;;;;;4.30;2.45;;;;;;;12.41;70.68;97575.09;5108941;28;20226;-80
2023/10/23 11:08:00;;;;;;;5.30;3.00;;;;;;;12.29;70.75;97566.06;5110588;28;20199;-80
2023/10/23 11:10:26;;;;;;;3.95;2.85;;;;;;;12.43;70.02;97570.28;5109053;28;20210;-80
2023/10/23 11:12:53;;;;;;;3.10;2.75;;;;;;;12.37;70.51;97556.75;5107848;28;20552;-80
2023/10/23 11:15:19;;;;;;;4.40;3.10;;;;;;;12.32;70.22;97556.63;5109810;28;20202;-80
2023/10/23 11:17:46;;;;;;;3.00;2.67;;;;;;;12.61;69.94;97555.88;5110742;28;20214;-79
2023/10/23 11:20:14;;;;;;;4.22;2.90;;;;;;;12.51;69.86;97552.03;5096590;28;20203;-81
2023/10/23 11:22:42;;;;;;;6.40;2.55;;;;;;;12.60;70.04;97543.38;5110396;28;20227;-81
2023/10/23 11:25:10;;;;;;;6.97;3.03;;;;;;;12.63;70.05;97532.06;5109308;28;20233;-81
2023/10/23 11:27:37;;;;;;;6.05;3.45;;;;;;;12.47;70.60;97526.38;5108926;28;20211;-80
2023/10/23 11:30:04;;;;;;;5.95;3.38;;;;;;;12.36;71.39;97519.81;5108273;28;20673;-81
2023/10/23 11:32:31;;;;;;;4.68;2.90;;;;;;;12.42;71.04;97508.91;5109109;28;20219;-81
2023/10/23 11:35:01;;;;;;;4.03;3.03;;;;;;;12.43;71.24;97507.84;5109373;28;20199;-80